createdAt,value
2023-03-05T00:01:18.302Z,19.48
2023-03-05T00:03:46.317Z,17.95
2023-03-05T00:06:13.042Z,17.52
2023-03-05T00:08:40.854Z,17.35
2023-03-05T00:11:09.983Z,20.08
2023-03-05T00:13:38.071Z,16.52
2023-03-05T00:16:06.727Z,24.67
2023-03-05T00:18:34.668Z,21.95
2023-03-05T00:21:01.531Z,15.35
2023-03-05T00:23:28.812Z,13.93
2023-03-05T00:25:55.554Z,16.17
2023-03-05T00:28:23.113Z,11.32
2023-03-05T00:30:49.794Z,9.00
2023-03-05T00:33:17.089Z,16.67
2023-03-05T00:35:46.667Z,8.18
2023-03-05T00:38:14.430Z,10.82
2023-03-05T00:40:41.700Z,8.60
2023-03-05T00:43:09.804Z,8.13
2023-03-05T00:45:37.457Z,11.75
2023-03-05T00:48:04.821Z,10.27
2023-03-05T00:50:32.139Z,10.63
2023-03-05T00:52:59.117Z,9.48
2023-03-05T00:55:26.445Z,21.55
2023-03-05T00:57:53.060Z,9.15
2023-03-05T01:00:20.624Z,8.65
2023-03-05T01:02:47.738Z,7.05
2023-03-05T01:05:14.971Z,10.95
2023-03-05T01:07:42.250Z,19.45
2023-03-05T01:10:10.144Z,8.93
2023-03-05T01:12:37.942Z,13.73
2023-03-05T01:15:05.869Z,14.52
2023-03-05T01:17:32.882Z,12.75
2023-03-05T01:20:00.138Z,17.48
2023-03-05T01:22:26.833Z,23.83
2023-03-05T01:24:54.202Z,18.27
2023-03-05T01:27:20.933Z,25.08
2023-03-05T01:29:48.277Z,21.98
2023-03-05T01:32:15.012Z,25.58
2023-03-05T01:34:42.310Z,15.00
2023-03-05T01:37:09.639Z,19.35
2023-03-05T01:39:36.936Z,18.27
2023-03-05T01:42:04.546Z,14.98
2023-03-05T01:44:33.041Z,13.48
2023-03-05T01:46:59.749Z,18.30
2023-03-05T01:49:30.258Z,24.40
2023-03-05T01:52:17.803Z,24.08
2023-03-05T01:54:49.878Z,23.88
2023-03-05T01:57:34.344Z,19.08
2023-03-05T02:00:07.824Z,20.55
2023-03-05T02:02:39.694Z,25.70
2023-03-05T02:05:10.995Z,20.23
2023-03-05T02:07:40.024Z,19.15
2023-03-05T02:10:22.977Z,15.88
2023-03-05T02:12:51.510Z,29.05
2023-03-05T02:15:21.518Z,15.43
2023-03-05T02:17:48.927Z,18.52
2023-03-05T02:20:19.171Z,21.77
2023-03-05T02:22:46.511Z,17.80
2023-03-05T02:25:21.193Z,22.98
2023-03-05T02:28:17.483Z,25.67
2023-03-05T02:30:44.503Z,17.83
2023-03-05T02:33:13.737Z,21.73
2023-03-05T02:35:40.753Z,14.48
2023-03-05T02:38:07.907Z,16.85
2023-03-05T02:40:35.217Z,21.35
2023-03-05T02:43:02.437Z,22.55
2023-03-05T02:45:29.316Z,16.52
2023-03-05T02:47:56.630Z,15.68
2023-03-05T02:50:24.978Z,16.75
2023-03-05T02:52:51.927Z,26.55
2023-03-05T02:55:19.723Z,19.35
2023-03-05T02:57:47.310Z,25.52
2023-03-05T03:00:14.524Z,18.95
2023-03-05T03:02:41.901Z,21.58
2023-03-05T03:05:09.405Z,22.73
2023-03-05T03:07:36.855Z,22.83
2023-03-05T03:10:05.107Z,16.75
2023-03-05T03:12:32.340Z,30.15
2023-03-05T03:15:00.955Z,19.13
2023-03-05T03:17:28.218Z,26.42
2023-03-05T03:19:54.818Z,15.23
2023-03-05T03:22:22.140Z,17.30
2023-03-05T03:24:48.835Z,17.63
2023-03-05T03:27:15.768Z,9.98
2023-03-05T03:29:42.434Z,13.88
2023-03-05T03:32:09.932Z,21.15
2023-03-05T03:34:37.228Z,21.45
2023-03-05T03:37:03.865Z,11.73
2023-03-05T03:39:31.218Z,10.73
2023-03-05T03:41:59.023Z,16.92
2023-03-05T03:44:26.010Z,15.48
2023-03-05T03:46:54.115Z,13.57
2023-03-05T03:49:26.315Z,11.43
2023-03-05T03:51:54.828Z,18.15
2023-03-05T03:54:22.557Z,13.27
2023-03-05T03:56:49.366Z,12.90
2023-03-05T03:59:16.988Z,25.63
2023-03-05T04:01:43.620Z,21.05
2023-03-05T04:04:13.209Z,18.38
2023-03-05T04:06:39.904Z,20.17
2023-03-05T04:09:08.445Z,19.15
2023-03-05T04:11:35.865Z,18.20
2023-03-05T04:14:04.580Z,26.45
2023-03-05T04:16:31.770Z,25.50
2023-03-05T04:18:59.031Z,22.83
2023-03-05T04:21:25.657Z,22.33
2023-03-05T04:23:52.886Z,31.85
2023-03-05T04:26:19.514Z,18.95
2023-03-05T04:28:48.495Z,15.55
2023-03-05T04:31:15.528Z,18.58
2023-03-05T04:33:42.851Z,19.70
2023-03-05T04:36:09.674Z,20.60
2023-03-05T04:38:36.916Z,19.05
2023-03-05T04:41:03.684Z,22.58
2023-03-05T04:43:31.055Z,24.13
2023-03-05T04:45:57.672Z,25.27
2023-03-05T04:48:24.934Z,16.52
2023-03-05T04:50:51.611Z,20.33
2023-03-05T04:53:18.890Z,15.40
2023-03-05T04:55:45.579Z,17.52
2023-03-05T04:58:12.841Z,13.95
2023-03-05T05:00:39.493Z,16.92
2023-03-05T05:03:06.763Z,14.32
2023-03-05T05:05:33.480Z,18.23
2023-03-05T05:08:00.704Z,15.25
2023-03-05T05:10:27.517Z,12.23
2023-03-05T05:12:54.823Z,18.05
2023-03-05T05:15:21.595Z,27.02
2023-03-05T05:17:48.882Z,17.63
2023-03-05T05:20:17.141Z,14.45
2023-03-05T05:22:44.517Z,23.95
2023-03-05T05:25:11.819Z,19.98
2023-03-05T05:27:40.171Z,22.05
2023-03-05T05:30:07.810Z,16.55
2023-03-05T05:32:35.458Z,19.35
2023-03-05T05:35:02.139Z,27.38
2023-03-05T05:37:30.049Z,21.13
2023-03-05T05:39:56.697Z,20.42
2023-03-05T05:42:25.348Z,14.57
2023-03-05T05:44:52.150Z,10.50
2023-03-05T05:47:19.498Z,16.88
2023-03-05T05:49:46.217Z,14.93
2023-03-05T05:52:14.039Z,24.17
2023-03-05T05:54:40.685Z,14.57
2023-03-05T05:57:08.709Z,14.75
2023-03-05T05:59:35.424Z,15.95
2023-03-05T06:02:02.836Z,15.60
2023-03-05T06:04:29.612Z,17.23
2023-03-05T06:06:56.999Z,17.70
2023-03-05T06:09:23.613Z,21.60
2023-03-05T06:11:50.970Z,14.52
2023-03-05T06:14:17.814Z,28.55
2023-03-05T06:16:45.160Z,25.27
2023-03-05T06:19:13.698Z,19.65
2023-03-05T06:21:43.279Z,14.75
2023-03-05T06:24:10.512Z,18.15
2023-03-05T06:26:37.855Z,30.48
2023-03-05T06:29:04.515Z,26.77
2023-03-05T06:31:31.892Z,19.45
2023-03-05T06:34:03.557Z,21.38
2023-03-05T06:36:30.949Z,22.43
2023-03-05T06:38:58.894Z,21.95
2023-03-05T06:41:29.115Z,20.63
2023-03-05T06:43:56.685Z,17.08
2023-03-05T06:46:30.662Z,25.23
2023-03-05T06:48:59.968Z,24.48
2023-03-05T06:51:35.875Z,19.13
2023-03-05T06:54:07.150Z,16.30
2023-03-05T06:56:39.968Z,24.98
2023-03-05T06:59:07.235Z,19.88
2023-03-05T07:01:34.357Z,17.33
2023-03-05T07:04:02.911Z,20.38
2023-03-05T07:06:33.920Z,17.88
2023-03-05T07:09:03.689Z,18.75
2023-03-05T07:11:31.679Z,26.27
2023-03-05T07:13:58.999Z,18.30
2023-03-05T07:16:29.178Z,28.40
2023-03-05T07:18:57.449Z,43.17
2023-03-05T07:21:28.499Z,19.58
2023-03-05T07:23:57.265Z,25.00
2023-03-05T07:26:25.356Z,20.85
2023-03-05T07:28:52.268Z,30.83
2023-03-05T07:31:22.226Z,22.05
2023-03-05T07:33:50.775Z,28.88
2023-03-05T07:36:18.603Z,24.95
2023-03-05T07:38:45.802Z,19.35
2023-03-05T07:41:19.879Z,17.10
2023-03-05T07:43:48.693Z,27.38
2023-03-05T07:46:18.591Z,18.63
2023-03-05T07:48:45.348Z,26.05
2023-03-05T07:51:18.914Z,18.90
2023-03-05T07:53:47.728Z,25.27
2023-03-05T07:56:20.869Z,26.40
2023-03-05T07:58:47.520Z,17.58
2023-03-05T08:01:15.230Z,16.58
2023-03-05T08:03:42.941Z,19.92
2023-03-05T08:06:12.905Z,15.70
2023-03-05T08:08:40.063Z,23.00
2023-03-05T08:11:12.928Z,28.50
2023-03-05T08:13:40.241Z,19.42
2023-03-05T08:16:10.112Z,24.27
2023-03-05T08:18:37.137Z,21.88
2023-03-05T08:21:05.225Z,36.35
2023-03-05T08:23:34.337Z,18.90
2023-03-05T08:26:01.852Z,21.50
2023-03-05T08:28:28.708Z,19.00
2023-03-05T08:30:56.959Z,22.48
2023-03-05T08:33:23.597Z,15.88
2023-03-05T08:35:50.870Z,22.35
2023-03-05T08:38:20.011Z,12.48
2023-03-05T08:40:48.579Z,18.15
2023-03-05T08:43:17.357Z,14.43
2023-03-05T08:45:44.681Z,22.95
2023-03-05T08:48:11.318Z,25.05
2023-03-05T08:50:39.063Z,24.83
2023-03-05T08:53:05.804Z,14.10
2023-03-05T08:55:33.196Z,15.57
2023-03-05T08:58:00.124Z,16.48
2023-03-05T09:00:27.537Z,16.35
2023-03-05T09:02:54.294Z,19.23
2023-03-05T09:05:21.322Z,12.07
2023-03-05T09:07:48.303Z,15.80
2023-03-05T09:10:15.349Z,21.02
2023-03-05T09:12:42.372Z,21.95
2023-03-05T09:15:10.840Z,23.88
2023-03-05T09:17:39.188Z,19.20
2023-03-05T09:20:07.301Z,11.38
2023-03-05T09:22:34.037Z,13.38
2023-03-05T09:25:01.369Z,14.93
2023-03-05T09:27:27.984Z,10.93
2023-03-05T09:29:55.817Z,9.82
2023-03-05T09:32:22.480Z,12.75
2023-03-05T09:34:49.441Z,9.63
2023-03-05T09:37:16.811Z,11.38
2023-03-05T09:39:43.533Z,11.43
2023-03-05T09:42:42.060Z,10.70
2023-03-05T09:45:21.636Z,17.55
2023-03-05T09:48:18.160Z,17.15
2023-03-05T09:50:52.616Z,16.08
2023-03-05T09:53:28.698Z,22.33
2023-03-05T09:55:59.040Z,20.35
2023-03-05T09:59:06.046Z,19.10
2023-03-05T10:01:39.923Z,19.13
2023-03-05T10:04:16.415Z,14.85
2023-03-05T10:06:57.671Z,20.08
2023-03-05T10:09:57.230Z,16.25
2023-03-05T10:12:43.053Z,20.38
2023-03-05T10:15:13.892Z,14.77
2023-03-05T10:17:53.034Z,17.80
2023-03-05T10:20:41.343Z,15.57
2023-03-05T10:23:07.931Z,19.05
2023-03-05T10:26:05.477Z,17.88
2023-03-05T10:28:47.096Z,15.73
2023-03-05T10:31:21.403Z,14.00
2023-03-05T10:34:15.253Z,9.32
2023-03-05T10:37:03.291Z,13.32
2023-03-05T10:39:46.729Z,15.27
2023-03-05T10:42:45.128Z,10.18
2023-03-05T10:45:18.893Z,13.48
2023-03-05T10:47:55.653Z,13.45
2023-03-05T10:50:25.878Z,12.15
2023-03-05T10:53:13.872Z,11.77
2023-03-05T10:55:41.179Z,11.32
2023-03-05T10:58:15.841Z,14.13
2023-03-05T11:01:04.733Z,13.10
2023-03-05T11:03:53.406Z,9.45
2023-03-05T11:06:46.618Z,15.07
2023-03-05T11:09:16.371Z,6.38
2023-03-05T11:11:44.282Z,12.27
2023-03-05T11:14:31.172Z,12.02
2023-03-05T11:16:58.190Z,12.15
2023-03-05T11:19:29.737Z,4.53
2023-03-05T11:22:21.337Z,8.90
2023-03-05T11:25:18.653Z,8.93
2023-03-05T11:27:54.582Z,11.93
2023-03-05T11:30:25.328Z,6.22
2023-03-05T11:33:13.668Z,4.28
2023-03-05T11:35:42.904Z,5.65
2023-03-05T11:38:20.843Z,5.43
2023-03-05T11:40:48.647Z,6.80
2023-03-05T11:43:18.838Z,6.88
2023-03-05T11:45:47.778Z,8.07
2023-03-05T11:48:28.116Z,14.35
2023-03-05T11:51:14.166Z,8.43
2023-03-05T11:53:44.657Z,13.75
2023-03-05T11:56:31.526Z,27.77
2023-03-05T11:59:19.254Z,22.58
2023-03-05T12:01:53.381Z,9.48
2023-03-05T12:04:21.680Z,6.07
2023-03-05T12:06:52.431Z,10.25
2023-03-05T12:09:28.552Z,10.40
2023-03-05T12:12:07.096Z,7.25
2023-03-05T12:14:45.490Z,8.45
2023-03-05T12:17:35.583Z,10.30
2023-03-05T12:20:14.526Z,8.60
2023-03-05T12:22:43.491Z,11.23
2023-03-05T12:25:33.140Z,8.82
2023-03-05T12:28:01.468Z,9.48
2023-03-05T12:30:34.293Z,9.18
2023-03-05T12:33:03.568Z,15.82
2023-03-05T12:35:41.217Z,16.90
2023-03-05T12:38:26.884Z,9.20
2023-03-05T12:41:22.496Z,10.13
2023-03-05T12:44:07.536Z,8.57
2023-03-05T12:46:42.389Z,7.60
2023-03-05T12:49:18.100Z,11.20
2023-03-05T12:51:47.675Z,20.90
2023-03-05T12:54:27.108Z,14.48
2023-03-05T12:56:57.001Z,14.32
2023-03-05T12:59:29.024Z,7.35
2023-03-05T13:02:03.664Z,13.38
2023-03-05T13:04:32.390Z,9.10
2023-03-05T13:07:04.440Z,18.63
2023-03-05T13:09:34.850Z,54.00
2023-03-05T13:12:04.019Z,20.58
2023-03-05T13:14:39.322Z,11.68
2023-03-05T13:17:31.748Z,2.83
2023-03-05T13:19:59.787Z,13.80
2023-03-05T13:22:27.341Z,36.83
2023-03-05T13:25:16.685Z,10.13
2023-03-05T13:27:43.819Z,4.85
2023-03-05T13:30:29.560Z,9.15
2023-03-05T13:33:05.477Z,2.63
2023-03-05T13:35:33.682Z,3.15
2023-03-05T13:38:02.366Z,5.40
2023-03-05T13:40:32.175Z,6.93
2023-03-05T13:43:18.368Z,6.25
2023-03-05T13:45:54.870Z,5.30
2023-03-05T13:48:22.613Z,4.97
2023-03-05T13:50:58.975Z,7.72
2023-03-05T13:53:29.307Z,8.85
2023-03-05T13:56:05.078Z,10.57
2023-03-05T13:58:52.632Z,15.75
2023-03-05T14:01:34.014Z,30.60
2023-03-05T14:04:08.848Z,28.58
2023-03-05T14:06:46.069Z,18.67
2023-03-05T14:09:24.014Z,10.90
2023-03-05T14:12:05.571Z,17.90
2023-03-05T14:14:38.765Z,11.20
2023-03-05T14:17:27.364Z,13.93
2023-03-05T14:20:11.375Z,14.45
2023-03-05T14:22:40.253Z,14.98
2023-03-05T14:25:33.988Z,15.98
2023-03-05T14:28:03.345Z,11.35
2023-03-05T14:30:30.828Z,21.67
2023-03-05T14:33:00.787Z,18.88
2023-03-05T14:35:28.981Z,14.65
2023-03-05T14:37:58.416Z,9.05
2023-03-05T14:40:36.688Z,10.88
2023-03-05T14:43:06.248Z,10.82
2023-03-05T14:45:36.047Z,10.98
2023-03-05T14:48:04.982Z,11.25
2023-03-05T14:50:38.479Z,9.38
2023-03-05T14:53:13.231Z,16.52
2023-03-05T14:55:42.398Z,14.68
2023-03-05T14:58:18.789Z,8.23
2023-03-05T15:00:45.454Z,10.70
2023-03-05T15:03:14.514Z,11.13
2023-03-05T15:05:42.718Z,10.20
2023-03-05T15:08:22.698Z,10.48
2023-03-05T15:10:49.668Z,6.70
2023-03-05T15:13:17.719Z,9.75
2023-03-05T15:15:45.743Z,15.80
2023-03-05T15:18:14.230Z,9.93
2023-03-05T15:20:41.450Z,11.23
2023-03-05T15:23:08.061Z,19.05
2023-03-05T15:25:35.513Z,13.02
2023-03-05T15:28:02.220Z,27.30
2023-03-05T15:30:35.467Z,42.25
2023-03-05T15:35:31.307Z,37.70
2023-03-05T15:37:58.355Z,14.32
2023-03-05T15:40:27.684Z,18.52
2023-03-05T15:42:59.037Z,15.20
2023-03-05T15:45:26.897Z,13.65
2023-03-05T15:47:53.994Z,13.15
2023-03-05T15:50:22.341Z,15.23
2023-03-05T15:52:49.261Z,12.98
2023-03-05T15:55:18.540Z,18.67
2023-03-05T15:57:50.439Z,20.85
2023-03-05T16:00:22.614Z,29.52
2023-03-05T16:02:50.498Z,31.48
2023-03-05T16:05:18.805Z,40.67
2023-03-05T16:07:49.180Z,44.92
2023-03-05T16:10:22.481Z,44.25
2023-03-05T16:12:52.699Z,33.58
2023-03-05T16:15:21.687Z,70.85
2023-03-05T16:17:53.108Z,39.42
2023-03-05T16:20:20.996Z,36.15
2023-03-05T16:22:47.877Z,31.88
2023-03-05T16:25:15.785Z,26.80
2023-03-05T16:27:42.431Z,27.40
2023-03-05T16:30:10.396Z,23.33
2023-03-05T16:32:38.543Z,22.15
2023-03-05T16:35:06.206Z,21.17
2023-03-05T16:37:32.861Z,24.02
2023-03-05T16:39:59.690Z,15.15
2023-03-05T16:42:26.335Z,11.80
2023-03-05T16:44:54.372Z,18.90
2023-03-05T16:47:21.038Z,32.50
2023-03-05T16:49:48.050Z,41.15
2023-03-05T16:52:19.231Z,74.47
2023-03-05T16:54:47.210Z,72.35
2023-03-05T16:57:14.205Z,38.63
2023-03-05T16:59:41.765Z,16.73
2023-03-05T17:02:08.422Z,14.65
2023-03-05T17:04:35.724Z,43.75
2023-03-05T17:07:04.004Z,47.00
2023-03-05T17:09:31.359Z,53.90
2023-03-05T17:11:58.391Z,28.65
2023-03-05T17:14:26.061Z,19.95
2023-03-05T17:16:52.855Z,11.35
2023-03-05T17:19:20.122Z,15.73
2023-03-05T17:21:50.522Z,11.38
2023-03-05T17:24:18.536Z,10.60
2023-03-05T17:26:46.318Z,10.27
2023-03-05T17:29:13.679Z,12.50
2023-03-05T17:31:40.502Z,15.98
2023-03-05T17:34:07.859Z,15.45
2023-03-05T17:36:34.528Z,14.50
2023-03-05T17:39:01.888Z,16.50
2023-03-05T17:41:28.599Z,11.35
2023-03-05T17:43:55.884Z,17.60
2023-03-05T17:46:22.590Z,16.10
2023-03-05T17:48:49.613Z,14.20
2023-03-05T17:51:16.633Z,13.98
2023-03-05T17:53:44.457Z,12.75
2023-03-05T17:56:13.354Z,22.75
2023-03-05T17:58:41.042Z,25.20
2023-03-05T18:01:08.664Z,24.38
2023-03-05T18:03:37.067Z,24.40
2023-03-05T18:06:04.794Z,29.95
2023-03-05T18:08:32.524Z,19.55
2023-03-05T18:10:59.437Z,13.65
2023-03-05T18:13:26.808Z,16.23
2023-03-05T18:15:53.683Z,25.48
2023-03-05T18:18:21.079Z,14.70
2023-03-05T18:20:48.632Z,14.50
2023-03-05T18:23:16.310Z,13.65
2023-03-05T18:25:44.213Z,17.98
2023-03-05T18:28:15.764Z,14.50
2023-03-05T18:30:45.173Z,12.25
2023-03-05T18:33:21.611Z,20.90
2023-03-05T18:35:51.913Z,16.05
2023-03-05T18:38:20.338Z,23.52
2023-03-05T18:40:48.416Z,34.97
2023-03-05T18:43:17.360Z,25.42
2023-03-05T18:45:45.653Z,25.98
2023-03-05T18:48:13.092Z,17.85
2023-03-05T18:50:39.842Z,18.73
2023-03-05T18:53:07.176Z,20.50
2023-03-05T18:55:33.836Z,22.67
2023-03-05T18:58:01.091Z,26.25
2023-03-05T19:00:30.400Z,18.52
2023-03-05T19:02:59.031Z,17.92
2023-03-05T19:05:26.555Z,20.50
2023-03-05T19:07:54.054Z,21.25
2023-03-05T19:10:22.511Z,22.15
2023-03-05T19:13:11.216Z,21.88
2023-03-05T19:15:51.682Z,33.17
2023-03-05T19:18:57.490Z,22.92
2023-03-05T19:21:26.918Z,25.65
2023-03-05T19:23:53.872Z,22.27
2023-03-05T19:26:20.515Z,17.77
2023-03-05T19:28:47.454Z,21.17
2023-03-05T19:31:15.251Z,21.88
2023-03-05T19:33:42.944Z,25.13
2023-03-05T19:36:10.971Z,26.10
2023-03-05T19:38:37.901Z,28.38
2023-03-05T19:41:05.738Z,25.70
2023-03-05T19:43:32.789Z,20.42
2023-03-05T19:46:04.462Z,19.58
2023-03-05T19:48:32.615Z,43.67
2023-03-05T19:50:59.288Z,48.20
2023-03-05T19:53:26.806Z,60.15
2023-03-05T19:55:53.438Z,36.20
2023-03-05T19:58:20.421Z,41.38
2023-03-05T20:00:47.033Z,42.63
2023-03-05T20:03:14.340Z,36.35
2023-03-05T20:05:41.796Z,21.80
2023-03-05T20:08:08.760Z,26.90
2023-03-05T20:10:35.500Z,18.27
2023-03-05T20:13:02.700Z,16.20
2023-03-05T20:15:29.550Z,12.77
2023-03-05T20:17:57.540Z,13.77
2023-03-05T20:20:24.775Z,12.45
2023-03-05T20:22:52.120Z,12.43
2023-03-05T20:25:24.147Z,10.85
2023-03-05T20:27:52.040Z,13.10
2023-03-05T20:30:18.873Z,9.45
2023-03-05T20:32:47.635Z,10.85
2023-03-05T20:35:17.076Z,14.98
2023-03-05T20:38:20.965Z,12.75
2023-03-05T20:43:17.098Z,11.40
2023-03-05T20:45:44.276Z,13.35
2023-03-05T20:48:12.371Z,10.25
2023-03-05T20:50:40.936Z,13.68
2023-03-05T20:53:09.269Z,15.40
2023-03-05T20:55:36.008Z,20.15
2023-03-05T20:58:02.934Z,33.45
2023-03-05T21:00:29.691Z,24.75
2023-03-05T21:02:57.319Z,31.30
2023-03-05T21:05:27.268Z,28.05
2023-03-05T21:07:54.913Z,30.90
2023-03-05T21:10:21.854Z,32.88
2023-03-05T21:12:51.064Z,39.03
2023-03-05T21:15:20.704Z,36.47
2023-03-05T21:17:47.685Z,38.42
2023-03-05T21:20:18.121Z,37.45
2023-03-05T21:22:45.349Z,41.42
2023-03-05T21:25:22.972Z,46.90
2023-03-05T21:28:00.839Z,32.63
2023-03-05T21:30:49.181Z,28.30
2023-03-05T21:33:20.888Z,22.73
2023-03-05T21:35:48.014Z,24.15
2023-03-05T21:38:14.967Z,23.38
2023-03-05T21:40:45.442Z,24.67
2023-03-05T21:43:14.043Z,27.23
2023-03-05T21:45:41.253Z,28.33
2023-03-05T21:48:09.645Z,32.63
2023-03-05T21:50:40.379Z,32.42
2023-03-05T21:53:08.398Z,38.00
2023-03-05T21:56:10.998Z,42.30
2023-03-05T21:58:53.055Z,35.47
2023-03-05T22:01:21.000Z,35.22
2023-03-05T22:03:49.680Z,28.55
2023-03-05T22:06:18.678Z,27.08
2023-03-05T22:08:46.122Z,29.90
2023-03-05T22:11:15.834Z,27.73
2023-03-05T22:13:43.249Z,26.63
2023-03-05T22:16:10.468Z,26.13
2023-03-05T22:18:37.737Z,28.27
2023-03-05T22:21:05.162Z,22.38
2023-03-05T22:23:34.689Z,22.15
2023-03-05T22:26:06.916Z,21.52
2023-03-05T22:28:35.712Z,22.60
2023-03-05T22:31:02.458Z,19.50
2023-03-05T22:33:29.948Z,20.58
2023-03-05T22:35:56.777Z,16.52
2023-03-05T22:38:25.512Z,21.20
2023-03-05T22:40:52.211Z,18.60
2023-03-05T22:43:20.235Z,21.83
2023-03-05T22:45:47.125Z,21.75
2023-03-05T22:48:14.574Z,15.93
2023-03-05T22:50:43.801Z,15.07
2023-03-05T22:53:12.268Z,18.45
2023-03-05T22:55:42.565Z,19.80
2023-03-05T22:58:10.076Z,17.42
2023-03-05T23:00:37.450Z,19.63
2023-03-05T23:03:05.253Z,16.83
2023-03-05T23:05:32.245Z,18.00
2023-03-05T23:07:59.456Z,17.45
2023-03-05T23:10:28.538Z,18.55
2023-03-05T23:12:57.803Z,15.45
2023-03-05T23:15:33.643Z,18.48
2023-03-05T23:18:01.679Z,17.20
2023-03-05T23:20:31.876Z,20.23
2023-03-05T23:23:00.001Z,20.80
2023-03-05T23:25:32.713Z,19.63
2023-03-05T23:28:00.759Z,17.48
2023-03-05T23:30:37.001Z,18.67
2023-03-05T23:33:20.797Z,18.90
2023-03-05T23:35:56.353Z,18.67
2023-03-05T23:38:24.956Z,18.48
2023-03-05T23:40:54.211Z,18.67
2023-03-05T23:43:22.259Z,19.25
2023-03-05T23:45:49.641Z,23.40
2023-03-05T23:48:17.455Z,20.45
2023-03-05T23:50:47.709Z,20.23
2023-03-05T23:53:23.111Z,20.75
2023-03-05T23:55:50.778Z,23.23
2023-03-05T23:58:20.081Z,24.45
